London, United Kingdom
Current Conditions -  °F | °C
As of 3:20 AM on Tuesday 21 Oct 2014 (Local Time) from EGLC Reporting Station
Broken Clouds Broken Clouds  
Wind Chill: 15°   Ceiling: 2600
Heat Index: 15°   Visibility: 6mi
Dew Point: 10°   Wind: 15mph
Humidity: 72%   Direction: 230°SW
Pressure: 29.74"   Gusts: NA
Location:  51.5°N, 0.13°W
Report Text: EGLC 210220Z AUTO 23013KT 9999 BKN026/// 15/10 Q1007
Loading
Personal Weather Stations






























Interactive Weather Map
Tropical Storm Tracking
New forecast layout! Learn more

10-Day Weather Forecast

Advertisements
Track Severe Weather on mobile